createdAt,value
2023-05-11T00:00:49.562Z,93.98
2023-05-11T00:01:51.106Z,93.71
2023-05-11T00:02:53.033Z,93.53
2023-05-11T00:03:56.238Z,92.46
2023-05-11T00:04:58.319Z,91.70
2023-05-11T00:06:00.256Z,91.39
2023-05-11T00:07:01.783Z,91.25
2023-05-11T00:08:03.351Z,91.26
2023-05-11T00:09:05.255Z,91.05
2023-05-11T00:10:07.579Z,91.86
2023-05-11T00:11:09.330Z,92.46
2023-05-11T00:12:11.052Z,92.79
2023-05-11T00:13:12.610Z,92.96
2023-05-11T00:14:14.155Z,92.72
2023-05-11T00:15:15.726Z,93.33
2023-05-11T00:16:17.355Z,93.73
2023-05-11T00:17:20.615Z,93.50
2023-05-11T00:18:22.255Z,93.14
2023-05-11T00:19:23.837Z,93.36
2023-05-11T00:20:25.428Z,93.40
2023-05-11T00:21:26.999Z,93.79
2023-05-11T00:22:28.720Z,94.00
2023-05-11T00:23:30.421Z,94.10
2023-05-11T00:24:31.962Z,92.84
2023-05-11T00:25:33.618Z,92.68
2023-05-11T00:26:35.129Z,92.24
2023-05-11T00:27:36.688Z,93.12
2023-05-11T00:28:38.204Z,94.14
2023-05-11T00:29:39.772Z,95.14
2023-05-11T00:30:41.470Z,95.45
2023-05-11T00:31:43.143Z,96.02
2023-05-11T00:32:45.395Z,96.92
2023-05-11T00:33:46.988Z,97.24
2023-05-11T00:34:48.520Z,97.11
2023-05-11T00:35:51.035Z,96.84
2023-05-11T00:36:52.586Z,96.19
2023-05-11T00:37:54.151Z,95.02
2023-05-11T00:38:55.687Z,94.77
2023-05-11T00:39:57.242Z,94.92
2023-05-11T00:40:58.787Z,95.32
2023-05-11T00:42:00.877Z,95.57
2023-05-11T00:43:02.445Z,95.79
2023-05-11T00:44:04.011Z,96.18
2023-05-11T00:45:06.332Z,96.58
2023-05-11T00:46:07.867Z,96.61
2023-05-11T00:47:09.531Z,96.04
2023-05-11T00:48:11.354Z,95.97
2023-05-11T00:49:17.160Z,96.60
2023-05-11T00:50:19.317Z,96.71
2023-05-11T00:51:23.828Z,96.94
2023-05-11T00:52:25.485Z,97.37
2023-05-11T00:53:27.259Z,97.25
2023-05-11T00:54:28.883Z,97.05
2023-05-11T00:55:30.629Z,97.37
2023-05-11T00:56:32.205Z,97.18
2023-05-11T00:57:36.197Z,97.27
2023-05-11T00:58:38.009Z,96.89
2023-05-11T00:59:39.613Z,96.27
2023-05-11T01:00:41.308Z,96.58
2023-05-11T01:01:43.014Z,96.26
2023-05-11T01:02:45.283Z,95.59
2023-05-11T01:03:47.726Z,95.30
2023-05-11T01:04:49.412Z,94.95
2023-05-11T01:06:32.689Z,95.18
2023-05-11T01:07:51.412Z,94.81
2023-05-11T01:09:20.565Z,94.39
2023-05-11T01:10:42.730Z,94.19
2023-05-11T01:11:52.027Z,93.82
2023-05-11T01:13:02.701Z,94.70
2023-05-11T01:14:11.540Z,95.45
2023-05-11T01:15:21.554Z,95.22
2023-05-11T01:16:27.024Z,95.27
2023-05-11T01:17:42.481Z,95.13
2023-05-11T01:18:59.008Z,94.91
2023-05-11T01:20:07.354Z,94.29
2023-05-11T01:21:09.862Z,94.49
2023-05-11T01:22:36.193Z,96.10
2023-05-11T01:23:40.641Z,96.67
2023-05-11T01:25:06.760Z,96.72
2023-05-11T01:26:35.224Z,96.58
2023-05-11T01:28:20.424Z,97.08
2023-05-11T01:29:43.197Z,96.94
2023-05-11T01:30:47.451Z,95.91
2023-05-11T01:31:50.516Z,95.61
2023-05-11T01:32:55.557Z,95.63
2023-05-11T01:34:04.879Z,94.98
2023-05-11T01:35:10.956Z,94.31
2023-05-11T01:36:14.805Z,93.57
2023-05-11T01:37:22.974Z,94.00
2023-05-11T01:38:28.905Z,94.07
2023-05-11T01:39:37.308Z,93.77
2023-05-11T01:40:41.914Z,93.87
2023-05-11T01:41:51.641Z,93.22
2023-05-11T01:43:05.023Z,93.73
2023-05-11T01:44:10.585Z,93.31
2023-05-11T01:45:13.757Z,93.31
2023-05-11T01:46:17.102Z,93.25
2023-05-11T01:47:20.330Z,92.52
2023-05-11T01:48:25.562Z,92.57
2023-05-11T01:49:27.913Z,91.27
2023-05-11T01:50:32.419Z,90.47
2023-05-11T01:51:39.971Z,89.56
2023-05-11T01:52:43.112Z,89.67
2023-05-11T01:53:46.689Z,89.50
2023-05-11T01:54:49.976Z,89.29
2023-05-11T01:55:52.624Z,90.61
2023-05-11T01:56:56.446Z,91.27
2023-05-11T01:57:59.592Z,91.56
2023-05-11T01:59:02.437Z,91.20
2023-05-11T02:00:04.923Z,90.83
2023-05-11T02:01:07.248Z,91.01
2023-05-11T02:02:10.115Z,90.91
2023-05-11T02:03:12.880Z,90.75
2023-05-11T02:04:16.005Z,90.68
2023-05-11T02:05:21.283Z,90.26
2023-05-11T02:06:24.832Z,90.29
2023-05-11T02:07:28.080Z,90.48
2023-05-11T02:08:32.274Z,91.16
2023-05-11T02:09:36.122Z,91.78
2023-05-11T02:10:40.589Z,92.01
2023-05-11T02:11:43.834Z,92.03
2023-05-11T02:12:46.806Z,92.68
2023-05-11T02:13:50.788Z,93.05
2023-05-11T02:14:53.957Z,93.25
2023-05-11T02:15:58.664Z,92.58
2023-05-11T02:17:02.419Z,92.17
2023-05-11T02:18:06.934Z,93.55
2023-05-11T02:19:08.895Z,94.36
2023-05-11T02:20:11.678Z,95.20
2023-05-11T02:21:15.410Z,95.85
2023-05-11T02:22:17.888Z,96.36
2023-05-11T02:23:20.657Z,96.64
2023-05-11T02:24:24.520Z,96.10
2023-05-11T02:25:26.806Z,95.75
2023-05-11T02:26:28.515Z,95.57
2023-05-11T02:27:30.193Z,95.09
2023-05-11T02:28:31.862Z,94.03
2023-05-11T02:29:33.490Z,93.12
2023-05-11T02:30:56.341Z,93.73
2023-05-11T02:32:12.298Z,94.08
2023-05-11T02:33:24.504Z,93.92
2023-05-11T02:34:29.196Z,92.96
2023-05-11T02:35:36.229Z,93.16
2023-05-11T02:36:39.015Z,93.34
2023-05-11T02:37:45.341Z,94.05
2023-05-11T02:38:48.290Z,94.59
2023-05-11T02:39:55.920Z,95.30
2023-05-11T02:41:01.425Z,96.39
2023-05-11T02:42:19.041Z,96.26
2023-05-11T02:43:28.849Z,97.20
2023-05-11T02:44:35.128Z,98.13
2023-05-11T02:45:37.750Z,98.75
2023-05-11T02:46:40.591Z,98.85
2023-05-11T02:47:56.671Z,99.08
2023-05-11T02:49:02.255Z,99.38
2023-05-11T02:50:05.936Z,98.85
2023-05-11T02:51:09.983Z,99.11
2023-05-11T02:52:13.300Z,99.53
2023-05-11T02:53:17.431Z,99.55
2023-05-11T02:54:19.648Z,99.03
2023-05-11T02:55:23.620Z,99.44
2023-05-11T02:56:26.087Z,99.17
2023-05-11T02:57:27.812Z,99.15
2023-05-11T02:58:30.353Z,99.06
2023-05-11T02:59:32.736Z,99.46
2023-05-11T03:00:34.964Z,99.43
2023-05-11T03:01:37.220Z,99.82
2023-05-11T03:02:39.144Z,99.78
2023-05-11T03:03:41.282Z,100.00
2023-05-11T03:04:42.897Z,100.00
2023-05-11T03:05:44.881Z,100.00
2023-05-11T03:06:46.560Z,100.00
2023-05-11T03:07:48.257Z,100.00
2023-05-11T03:08:50.013Z,100.00
2023-05-11T03:09:52.164Z,100.00
2023-05-11T03:10:54.342Z,100.00
2023-05-11T03:11:57.066Z,100.00
2023-05-11T03:12:59.108Z,99.78
2023-05-11T03:14:02.179Z,100.00
2023-05-11T03:15:04.761Z,100.00
2023-05-11T03:16:07.853Z,100.00
2023-05-11T03:17:10.082Z,100.00
2023-05-11T03:18:12.347Z,100.00
2023-05-11T03:19:15.194Z,100.00
2023-05-11T03:20:19.386Z,100.00
2023-05-11T03:21:23.278Z,100.00
2023-05-11T03:22:26.065Z,99.69
2023-05-11T03:23:29.864Z,99.98
2023-05-11T03:24:31.629Z,100.00
2023-05-11T03:25:33.801Z,100.00
2023-05-11T03:26:36.406Z,100.00
2023-05-11T03:27:39.437Z,100.00
2023-05-11T03:28:44.503Z,100.00
2023-05-11T03:29:47.610Z,100.00
2023-05-11T03:30:51.485Z,100.00
2023-05-11T03:31:54.869Z,100.00
2023-05-11T03:32:56.618Z,100.00
2023-05-11T03:33:58.419Z,100.00
2023-05-11T03:35:00.166Z,100.00
2023-05-11T03:36:04.473Z,100.00
2023-05-11T03:37:08.022Z,100.00
2023-05-11T03:38:12.446Z,100.00
2023-05-11T03:39:16.445Z,100.00
2023-05-11T03:40:19.866Z,100.00
2023-05-11T03:41:22.680Z,100.00
2023-05-11T03:42:26.588Z,100.00
2023-05-11T03:43:31.904Z,100.00
2023-05-11T03:44:34.409Z,100.00
2023-05-11T03:45:37.676Z,100.00
2023-05-11T03:46:41.927Z,100.00
2023-05-11T03:47:45.165Z,100.00
2023-05-11T03:48:48.172Z,100.00
2023-05-11T03:49:51.328Z,100.00
2023-05-11T03:50:53.536Z,100.00
2023-05-11T03:51:56.322Z,100.00
2023-05-11T03:52:59.254Z,100.00
2023-05-11T03:54:01.106Z,100.00
2023-05-11T03:55:03.670Z,100.00
2023-05-11T03:56:07.439Z,100.00
2023-05-11T03:57:10.126Z,100.00
2023-05-11T03:58:11.800Z,100.00
2023-05-11T03:59:16.784Z,100.00
2023-05-11T04:00:19.324Z,100.00
2023-05-11T04:01:22.847Z,100.00
2023-05-11T04:02:24.726Z,100.00
2023-05-11T04:03:26.708Z,100.00
2023-05-11T04:04:32.336Z,100.00
2023-05-11T04:05:33.933Z,100.00
2023-05-11T04:06:35.625Z,100.00
2023-05-11T04:07:38.868Z,100.00
2023-05-11T04:08:40.608Z,100.00
2023-05-11T04:09:42.184Z,100.00
2023-05-11T04:10:43.693Z,100.00
2023-05-11T04:11:45.378Z,100.00
2023-05-11T04:12:46.908Z,100.00
2023-05-11T04:13:48.465Z,100.00
2023-05-11T04:14:50.040Z,100.00
2023-05-11T04:15:54.249Z,100.00
2023-05-11T04:16:55.937Z,100.00
2023-05-11T04:17:57.579Z,100.00
2023-05-11T04:18:59.449Z,100.00
2023-05-11T04:20:01.307Z,100.00
2023-05-11T04:21:02.894Z,100.00
2023-05-11T04:22:04.441Z,100.00
2023-05-11T04:23:06.961Z,99.92
2023-05-11T04:24:09.286Z,100.00
2023-05-11T04:25:11.531Z,100.00
2023-05-11T04:26:13.301Z,100.00
2023-05-11T04:27:16.480Z,100.00
2023-05-11T04:28:18.596Z,100.00
2023-05-11T04:29:20.104Z,100.00
2023-05-11T04:30:22.022Z,100.00
2023-05-11T04:31:23.801Z,100.00
2023-05-11T04:32:25.430Z,99.36
2023-05-11T04:33:27.067Z,100.00
2023-05-11T04:34:28.636Z,99.25
2023-05-11T04:35:30.161Z,100.00
2023-05-11T04:36:33.014Z,99.48
2023-05-11T04:37:34.562Z,100.00
2023-05-11T04:38:36.748Z,99.92
2023-05-11T04:39:38.369Z,99.07
2023-05-11T04:40:39.996Z,99.14
2023-05-11T04:41:41.574Z,98.30
2023-05-11T04:42:43.229Z,98.69
2023-05-11T04:43:44.796Z,98.53
2023-05-11T04:44:46.504Z,98.18
2023-05-11T04:45:51.485Z,98.16
2023-05-11T04:46:56.761Z,98.45
2023-05-11T04:47:58.469Z,96.69
2023-05-11T04:49:00.121Z,98.08
2023-05-11T04:50:01.689Z,97.63
2023-05-11T04:51:06.840Z,99.33
2023-05-11T04:52:08.378Z,99.37
2023-05-11T04:53:10.310Z,98.74
2023-05-11T04:54:11.906Z,98.20
2023-05-11T04:55:13.428Z,98.70
2023-05-11T04:56:14.999Z,98.71
2023-05-11T04:57:16.562Z,97.69
2023-05-11T04:58:18.093Z,96.94
2023-05-11T04:59:19.709Z,96.37
2023-05-11T05:00:21.928Z,97.48
2023-05-11T05:01:23.725Z,96.53
2023-05-11T05:02:25.515Z,96.39
2023-05-11T05:03:27.201Z,97.47
2023-05-11T05:04:29.008Z,97.60
2023-05-11T05:05:30.809Z,97.13
2023-05-11T05:06:32.868Z,98.35
2023-05-11T05:07:34.447Z,98.83
2023-05-11T05:08:36.134Z,99.19
2023-05-11T05:09:37.644Z,99.02
2023-05-11T05:10:39.210Z,99.19
2023-05-11T05:11:40.860Z,98.09
2023-05-11T05:12:42.406Z,98.28
2023-05-11T05:13:44.175Z,98.74
2023-05-11T05:14:45.737Z,99.42
2023-05-11T05:15:47.362Z,99.16
2023-05-11T05:16:49.246Z,98.69
2023-05-11T05:17:50.842Z,98.76
2023-05-11T05:18:52.423Z,98.96
2023-05-11T05:19:53.953Z,98.91
2023-05-11T05:20:55.579Z,100.00
2023-05-11T05:21:57.149Z,100.00
2023-05-11T05:22:59.059Z,99.47
2023-05-11T05:24:00.814Z,99.13
2023-05-11T05:25:02.336Z,98.82
2023-05-11T05:26:03.997Z,98.23
2023-05-11T05:27:05.613Z,98.15
2023-05-11T05:28:07.197Z,98.55
2023-05-11T05:29:08.734Z,98.88
2023-05-11T05:30:10.493Z,98.57
2023-05-11T05:31:12.082Z,98.07
2023-05-11T05:32:13.889Z,97.19
2023-05-11T05:33:15.440Z,97.59
2023-05-11T05:34:16.990Z,98.10
2023-05-11T05:35:18.560Z,97.58
2023-05-11T05:36:20.093Z,98.54
2023-05-11T05:37:21.632Z,98.26
2023-05-11T05:38:23.206Z,98.70
2023-05-11T05:39:24.709Z,98.78
2023-05-11T05:40:26.330Z,97.95
2023-05-11T05:41:28.013Z,97.54
2023-05-11T05:42:29.649Z,97.90
2023-05-11T05:43:31.312Z,97.77
2023-05-11T05:44:32.843Z,98.49
2023-05-11T05:45:34.412Z,97.29
2023-05-11T05:46:36.423Z,97.46
2023-05-11T05:47:38.183Z,97.31
2023-05-11T05:48:39.823Z,97.68
2023-05-11T05:49:41.428Z,98.02
2023-05-11T05:50:43.007Z,98.40
2023-05-11T05:51:44.626Z,97.28
2023-05-11T05:52:46.247Z,97.25
2023-05-11T05:53:47.763Z,98.58
2023-05-11T05:54:49.350Z,97.92
2023-05-11T05:55:50.976Z,97.79
2023-05-11T05:56:52.544Z,97.52
2023-05-11T05:57:54.195Z,97.04
2023-05-11T05:58:56.637Z,97.40
2023-05-11T05:59:58.201Z,97.45
2023-05-11T06:01:00.889Z,97.39
2023-05-11T06:02:02.620Z,98.08
2023-05-11T06:03:04.293Z,96.97
2023-05-11T06:04:06.520Z,97.25
2023-05-11T06:05:09.913Z,97.64
2023-05-11T06:06:11.997Z,96.83
2023-05-11T06:07:14.254Z,96.61
2023-05-11T06:08:16.389Z,96.11
2023-05-11T06:09:17.938Z,97.22
2023-05-11T06:10:19.647Z,97.33
2023-05-11T06:11:21.799Z,96.45
2023-05-11T06:12:23.317Z,95.78
2023-05-11T06:13:24.993Z,96.40
2023-05-11T06:14:26.498Z,96.09
2023-05-11T06:15:28.188Z,96.04
2023-05-11T06:16:30.337Z,95.72
2023-05-11T06:17:31.993Z,96.02
2023-05-11T06:18:33.571Z,95.73
2023-05-11T06:19:35.243Z,95.84
2023-05-11T06:20:36.821Z,96.31
2023-05-11T06:21:38.407Z,95.78
2023-05-11T06:22:40.057Z,96.65
2023-05-11T06:23:41.633Z,95.79
2023-05-11T06:24:43.141Z,94.67
2023-05-11T06:25:44.808Z,94.93
2023-05-11T06:26:46.453Z,96.10
2023-05-11T06:27:48.026Z,97.22
2023-05-11T06:28:49.578Z,96.58
2023-05-11T06:29:51.185Z,96.50
2023-05-11T06:30:52.969Z,97.13
2023-05-11T06:31:55.917Z,97.44
2023-05-11T06:32:57.529Z,97.28
2023-05-11T06:33:59.276Z,97.06
2023-05-11T06:35:01.383Z,96.79
2023-05-11T06:36:06.885Z,96.51
2023-05-11T06:37:08.395Z,96.64
2023-05-11T06:38:09.913Z,96.06
2023-05-11T06:39:11.569Z,95.92
2023-05-11T06:40:16.331Z,94.69
2023-05-11T06:41:18.191Z,96.23
2023-05-11T06:42:19.761Z,96.18
2023-05-11T06:43:21.655Z,96.28
2023-05-11T06:44:23.217Z,95.94
2023-05-11T06:45:24.868Z,95.40
2023-05-11T06:46:26.699Z,95.81
2023-05-11T06:47:28.333Z,96.67
2023-05-11T06:48:30.174Z,97.12
2023-05-11T06:49:31.736Z,96.21
2023-05-11T06:50:33.518Z,94.21
2023-05-11T06:51:35.075Z,93.73
2023-05-11T06:52:36.608Z,93.53
2023-05-11T06:53:38.841Z,94.41
2023-05-11T06:54:40.603Z,95.54
2023-05-11T06:55:42.188Z,95.32
2023-05-11T06:56:43.850Z,92.85
2023-05-11T06:57:47.976Z,92.18
2023-05-11T06:58:49.906Z,92.64
2023-05-11T06:59:54.486Z,92.63
2023-05-11T07:00:56.601Z,92.40
2023-05-11T07:01:58.422Z,92.80
2023-05-11T07:02:59.997Z,92.10
2023-05-11T07:04:01.674Z,91.10
2023-05-11T07:05:03.620Z,91.52
2023-05-11T07:06:05.302Z,91.73
2023-05-11T07:07:07.311Z,90.15
2023-05-11T07:08:08.889Z,90.54
2023-05-11T07:09:10.415Z,90.54
2023-05-11T07:10:11.983Z,90.80
2023-05-11T07:11:15.400Z,90.81
2023-05-11T07:12:16.974Z,91.33
2023-05-11T07:13:18.531Z,92.01
2023-05-11T07:14:20.098Z,91.00
2023-05-11T07:15:21.746Z,91.24
2023-05-11T07:16:23.487Z,91.47
2023-05-11T07:17:25.077Z,90.51
2023-05-11T07:18:26.692Z,91.07
2023-05-11T07:19:28.231Z,90.67
2023-05-11T07:20:29.835Z,90.97
2023-05-11T07:21:32.840Z,91.57
2023-05-11T07:22:34.397Z,91.84
2023-05-11T07:23:36.020Z,91.98
2023-05-11T07:24:37.982Z,92.13
2023-05-11T07:25:39.573Z,90.30
2023-05-11T07:26:41.191Z,90.60
2023-05-11T07:27:42.905Z,90.58
2023-05-11T07:28:44.470Z,90.54
2023-05-11T07:29:46.144Z,89.66
2023-05-11T07:30:47.787Z,89.00
2023-05-11T07:31:49.440Z,89.13
2023-05-11T07:32:51.091Z,88.75
2023-05-11T07:33:53.353Z,87.91
2023-05-11T07:34:54.941Z,87.50
2023-05-11T07:35:56.546Z,87.65
2023-05-11T07:36:58.159Z,88.46
2023-05-11T07:37:59.726Z,88.15
2023-05-11T07:39:01.427Z,87.51
2023-05-11T07:40:03.136Z,87.42
2023-05-11T07:41:06.662Z,86.86
2023-05-11T07:42:08.718Z,87.26
2023-05-11T07:43:10.224Z,87.29
2023-05-11T07:44:11.828Z,86.36
2023-05-11T07:45:13.369Z,86.58
2023-05-11T07:46:14.991Z,85.88
2023-05-11T07:47:18.920Z,85.34
2023-05-11T07:48:20.890Z,85.65
2023-05-11T07:49:31.109Z,85.13
2023-05-11T07:50:42.529Z,85.46
2023-05-11T07:51:44.619Z,85.92
2023-05-11T07:52:46.175Z,84.65
2023-05-11T07:53:47.874Z,84.94
2023-05-11T07:54:49.427Z,84.41
2023-05-11T07:55:51.321Z,84.55
2023-05-11T07:56:53.673Z,86.97
2023-05-11T07:57:55.661Z,87.18
2023-05-11T07:58:57.224Z,86.90
2023-05-11T07:59:58.811Z,86.09
2023-05-11T08:01:00.320Z,85.41
2023-05-11T08:02:01.995Z,85.65
2023-05-11T08:03:03.642Z,86.63
2023-05-11T08:04:05.259Z,86.53
2023-05-11T08:05:07.450Z,84.57
2023-05-11T08:06:09.129Z,84.60
2023-05-11T08:07:10.769Z,85.16
2023-05-11T08:08:12.289Z,84.29
2023-05-11T08:09:14.958Z,80.89
2023-05-11T08:10:16.546Z,81.28
2023-05-11T08:11:18.158Z,84.11
2023-05-11T08:12:19.756Z,81.93
2023-05-11T08:13:21.512Z,82.32
2023-05-11T08:14:24.456Z,82.54
2023-05-11T08:15:26.139Z,84.36
2023-05-11T08:16:27.743Z,84.85
2023-05-11T08:17:30.187Z,82.42
2023-05-11T08:18:32.077Z,83.64
2023-05-11T08:19:33.669Z,83.91
2023-05-11T08:20:35.412Z,83.39
2023-05-11T08:21:37.046Z,84.60
2023-05-11T08:22:38.637Z,86.93
2023-05-11T08:23:40.156Z,85.64
2023-05-11T08:24:41.966Z,86.26
2023-05-11T08:25:51.485Z,82.97
2023-05-11T08:26:53.039Z,84.19
2023-05-11T08:27:54.572Z,84.32
2023-05-11T08:28:56.170Z,82.18
2023-05-11T08:29:58.225Z,84.09
2023-05-11T08:31:01.068Z,85.35
2023-05-11T08:32:02.619Z,84.90
2023-05-11T08:33:13.633Z,85.25
2023-05-11T08:34:25.124Z,84.23
2023-05-11T08:35:27.360Z,84.33
2023-05-11T08:36:28.979Z,81.22
2023-05-11T08:37:31.045Z,81.02
2023-05-11T08:38:33.376Z,80.90
2023-05-11T08:39:46.774Z,81.12
2023-05-11T08:40:51.279Z,83.01
2023-05-11T08:41:55.050Z,83.84
2023-05-11T08:42:57.857Z,83.52
2023-05-11T08:44:00.686Z,82.76
2023-05-11T08:45:04.337Z,82.62
2023-05-11T08:46:07.864Z,81.99
2023-05-11T08:47:22.552Z,81.92
2023-05-11T08:48:27.783Z,79.94
2023-05-11T08:49:29.455Z,80.89
2023-05-11T08:50:31.251Z,81.82
2023-05-11T08:51:33.293Z,81.36
2023-05-11T08:52:34.904Z,77.86
2023-05-11T08:53:36.471Z,80.64
2023-05-11T08:54:38.324Z,76.47
2023-05-11T08:55:41.823Z,76.61
2023-05-11T08:56:43.786Z,76.95
2023-05-11T08:57:46.975Z,77.17
2023-05-11T08:58:50.718Z,78.67
2023-05-11T08:59:53.978Z,78.49
2023-05-11T09:00:56.695Z,80.26
2023-05-11T09:01:59.464Z,79.92
2023-05-11T09:03:02.622Z,80.57
2023-05-11T09:04:05.464Z,80.27
2023-05-11T09:05:08.794Z,77.25
2023-05-11T09:06:11.110Z,78.33
2023-05-11T09:07:16.458Z,79.07
2023-05-11T09:08:19.458Z,79.00
2023-05-11T09:09:21.055Z,74.04
2023-05-11T09:10:22.696Z,75.54
2023-05-11T09:11:24.961Z,74.52
2023-05-11T09:12:28.442Z,78.97
2023-05-11T09:13:31.029Z,78.91
2023-05-11T09:14:33.152Z,79.20
2023-05-11T09:15:38.095Z,77.95
2023-05-11T09:16:39.985Z,77.65
2023-05-11T09:17:41.640Z,77.35
2023-05-11T09:18:50.972Z,76.74
2023-05-11T09:20:07.719Z,75.89
2023-05-11T09:21:09.258Z,75.48
2023-05-11T09:22:11.090Z,72.22
2023-05-11T09:23:16.956Z,74.66
2023-05-11T09:24:20.484Z,74.26
2023-05-11T09:25:23.545Z,74.59
2023-05-11T09:26:29.939Z,73.02
2023-05-11T09:27:32.455Z,75.12
2023-05-11T09:28:36.057Z,75.28
2023-05-11T09:29:37.963Z,75.54
2023-05-11T09:30:39.503Z,71.58
2023-05-11T09:31:42.338Z,72.73
2023-05-11T09:32:48.819Z,74.64
2023-05-11T09:33:50.397Z,75.52
2023-05-11T09:34:51.956Z,72.71
2023-05-11T09:35:53.708Z,72.33
2023-05-11T09:36:57.059Z,72.36
2023-05-11T09:38:12.684Z,68.72
2023-05-11T09:39:16.476Z,69.25
2023-05-11T09:40:27.283Z,73.02
2023-05-11T09:41:34.895Z,74.13
2023-05-11T09:42:37.023Z,73.62
2023-05-11T09:43:38.667Z,69.16
2023-05-11T09:44:41.788Z,72.38
2023-05-11T09:45:45.429Z,73.00
2023-05-11T09:46:47.621Z,71.70
2023-05-11T09:47:49.335Z,71.73
2023-05-11T09:49:02.580Z,70.39
2023-05-11T09:50:17.291Z,70.89
2023-05-11T09:51:30.530Z,72.11
2023-05-11T09:52:32.112Z,67.04
2023-05-11T09:53:45.571Z,68.47
2023-05-11T09:54:49.949Z,67.93
2023-05-11T09:55:52.955Z,72.39
2023-05-11T09:56:56.980Z,68.77
2023-05-11T09:58:00.053Z,68.89
2023-05-11T09:59:01.791Z,67.85
2023-05-11T10:00:05.888Z,68.03
2023-05-11T10:01:12.993Z,71.27
2023-05-11T10:02:44.153Z,68.93
2023-05-11T10:03:52.086Z,68.78
2023-05-11T10:04:56.011Z,71.55
2023-05-11T10:06:00.663Z,70.35
2023-05-11T10:07:04.820Z,68.24
2023-05-11T10:08:06.598Z,68.03
2023-05-11T10:09:11.959Z,69.64
2023-05-11T10:10:13.891Z,65.84
2023-05-11T10:11:15.774Z,66.20
2023-05-11T10:12:18.726Z,67.29
2023-05-11T10:13:21.156Z,69.40
2023-05-11T10:14:24.771Z,69.86
2023-05-11T10:15:28.435Z,68.88
2023-05-11T10:16:31.338Z,68.53
2023-05-11T10:17:33.722Z,65.35
2023-05-11T10:18:36.866Z,67.03
2023-05-11T10:19:38.612Z,64.41
2023-05-11T10:20:40.726Z,62.37
2023-05-11T10:21:42.711Z,64.20
2023-05-11T10:22:45.972Z,65.36
2023-05-11T10:23:47.598Z,66.39
2023-05-11T10:24:50.894Z,65.37
2023-05-11T10:25:57.229Z,63.60
2023-05-11T10:26:59.977Z,65.17
2023-05-11T10:28:02.127Z,66.05
2023-05-11T10:29:04.718Z,66.54
2023-05-11T10:30:07.752Z,66.48
2023-05-11T10:31:09.866Z,65.33
2023-05-11T10:32:11.985Z,63.36
2023-05-11T10:33:14.002Z,62.94
2023-05-11T10:34:16.517Z,64.47
2023-05-11T10:35:18.874Z,66.92
2023-05-11T10:36:23.700Z,64.49
2023-05-11T10:37:26.569Z,65.62
2023-05-11T10:38:28.139Z,68.80
2023-05-11T10:39:30.876Z,70.80
2023-05-11T10:40:38.662Z,70.85
2023-05-11T10:42:11.366Z,71.16
2023-05-11T10:43:38.777Z,71.07
2023-05-11T10:44:55.304Z,69.41
2023-05-11T10:46:22.445Z,68.14
2023-05-11T10:47:27.418Z,70.10
2023-05-11T10:48:28.958Z,67.44
2023-05-11T10:50:03.011Z,65.85
2023-05-11T10:51:07.443Z,64.03
2023-05-11T10:52:30.286Z,65.70
2023-05-11T10:54:02.520Z,61.05
2023-05-11T10:55:39.466Z,67.22
2023-05-11T10:56:56.477Z,64.78
2023-05-11T10:58:07.792Z,64.49
2023-05-11T10:59:42.592Z,65.07
2023-05-11T11:01:08.678Z,62.97
2023-05-11T11:02:10.858Z,63.08
2023-05-11T11:03:14.067Z,63.64
2023-05-11T11:04:16.126Z,65.93
2023-05-11T11:05:33.683Z,64.03
2023-05-11T11:06:37.669Z,65.38
2023-05-11T11:08:04.074Z,62.62
2023-05-11T11:09:15.633Z,58.19
2023-05-11T11:10:31.678Z,58.88
2023-05-11T11:11:39.313Z,60.10
2023-05-11T11:12:59.955Z,62.35
2023-05-11T11:14:04.625Z,61.12
2023-05-11T11:15:07.267Z,62.08
2023-05-11T11:16:09.577Z,64.82
2023-05-11T11:17:17.274Z,66.52
2023-05-11T11:18:20.855Z,58.79
2023-05-11T11:19:35.851Z,59.37
2023-05-11T11:20:52.362Z,62.66
2023-05-11T11:21:53.931Z,62.89
2023-05-11T11:22:55.505Z,60.42
2023-05-11T11:23:57.142Z,60.95
2023-05-11T11:24:58.726Z,61.30
2023-05-11T11:26:00.956Z,60.57
2023-05-11T11:27:03.239Z,61.47
2023-05-11T11:28:05.447Z,60.80
2023-05-11T11:29:11.684Z,60.87
2023-05-11T11:30:34.890Z,59.35
2023-05-11T11:31:37.454Z,62.26
2023-05-11T11:32:39.129Z,61.72
2023-05-11T11:33:40.740Z,60.86
2023-05-11T11:34:42.367Z,57.80
2023-05-11T11:35:44.873Z,61.30
2023-05-11T11:36:55.785Z,62.12
2023-05-11T11:38:06.071Z,59.32
2023-05-11T11:39:08.120Z,59.02
2023-05-11T11:40:15.348Z,59.71
2023-05-11T11:41:29.462Z,58.05
2023-05-11T11:42:31.133Z,60.03
2023-05-11T11:43:47.311Z,59.33
2023-05-11T11:44:49.059Z,60.31
2023-05-11T11:45:51.507Z,58.98
2023-05-11T11:47:16.507Z,58.86
2023-05-11T11:48:23.518Z,57.90
2023-05-11T11:49:27.279Z,56.42
2023-05-11T11:50:28.963Z,57.70
2023-05-11T11:51:34.512Z,56.70
2023-05-11T11:52:36.230Z,55.58
2023-05-11T11:53:38.238Z,55.49
2023-05-11T11:54:41.723Z,55.02
2023-05-11T11:55:52.371Z,56.14
2023-05-11T11:56:53.906Z,57.11
2023-05-11T11:57:55.465Z,54.29
2023-05-11T11:59:01.373Z,54.75
2023-05-11T12:00:05.700Z,51.72
2023-05-11T12:01:22.828Z,53.49
2023-05-11T12:02:26.409Z,53.18
2023-05-11T12:03:28.384Z,53.37
2023-05-11T12:04:45.062Z,54.87
2023-05-11T12:05:48.126Z,57.07
2023-05-11T12:06:57.808Z,56.42
2023-05-11T12:08:05.556Z,54.27
2023-05-11T12:09:08.111Z,55.35
2023-05-11T12:10:12.484Z,54.06
2023-05-11T12:11:17.638Z,57.82
2023-05-11T12:12:20.972Z,54.98
2023-05-11T12:13:22.790Z,55.11
2023-05-11T12:14:25.259Z,54.89
2023-05-11T12:15:34.524Z,52.91
2023-05-11T12:16:36.071Z,53.61
2023-05-11T12:17:39.126Z,55.32
2023-05-11T12:18:42.040Z,55.34
2023-05-11T12:19:44.440Z,54.58
2023-05-11T12:20:46.310Z,53.53
2023-05-11T12:21:47.839Z,57.38
2023-05-11T12:22:49.829Z,56.49
2023-05-11T12:23:55.998Z,52.40
2023-05-11T12:25:00.307Z,55.40
2023-05-11T12:26:06.665Z,56.52
2023-05-11T12:27:08.521Z,52.97
2023-05-11T12:28:12.528Z,51.09
2023-05-11T12:29:15.364Z,54.12
2023-05-11T12:30:27.389Z,52.83
2023-05-11T12:31:35.449Z,50.90
2023-05-11T12:32:37.024Z,51.68
2023-05-11T12:33:49.217Z,52.59
2023-05-11T12:35:04.315Z,53.41
2023-05-11T12:36:06.428Z,54.16
2023-05-11T12:37:08.711Z,55.18
2023-05-11T12:38:11.056Z,51.79
2023-05-11T12:39:26.811Z,53.56
2023-05-11T12:40:28.504Z,54.63
2023-05-11T12:41:30.044Z,54.21
2023-05-11T12:42:33.287Z,54.15
2023-05-11T12:43:36.988Z,51.68
2023-05-11T12:44:40.756Z,51.49
2023-05-11T12:45:42.486Z,52.60
2023-05-11T12:46:48.696Z,54.55
2023-05-11T12:47:52.958Z,52.83
2023-05-11T12:48:54.690Z,55.04
2023-05-11T12:49:56.302Z,54.11
2023-05-11T12:50:57.982Z,54.91
2023-05-11T12:51:59.483Z,55.44
2023-05-11T12:53:16.395Z,55.75
2023-05-11T12:54:35.353Z,53.42
2023-05-11T12:55:37.020Z,51.59
2023-05-11T12:56:50.713Z,51.82
2023-05-11T12:57:54.622Z,52.86
2023-05-11T12:58:56.167Z,53.23
2023-05-11T13:00:08.054Z,51.55
2023-05-11T13:01:09.724Z,50.52
2023-05-11T13:02:15.991Z,51.65
2023-05-11T13:03:25.756Z,53.43
2023-05-11T13:04:31.014Z,50.32
2023-05-11T13:05:32.749Z,53.73
2023-05-11T13:06:34.328Z,52.52
2023-05-11T13:07:35.885Z,51.99
2023-05-11T13:08:39.014Z,49.68
2023-05-11T13:09:41.205Z,50.35
2023-05-11T13:10:42.766Z,50.73
2023-05-11T13:11:44.329Z,53.63
2023-05-11T13:12:50.476Z,52.10
2023-05-11T13:13:53.705Z,52.48
2023-05-11T13:15:12.840Z,52.21
2023-05-11T13:16:28.595Z,51.39
2023-05-11T13:17:35.674Z,52.96
2023-05-11T13:18:37.406Z,51.30
2023-05-11T13:19:39.590Z,51.43
2023-05-11T13:20:41.671Z,52.72
2023-05-11T13:21:46.511Z,51.83
2023-05-11T13:22:49.465Z,50.68
2023-05-11T13:23:51.702Z,49.44
2023-05-11T13:25:02.546Z,50.25
2023-05-11T13:26:04.338Z,48.66
2023-05-11T13:27:05.902Z,48.95
2023-05-11T13:28:07.550Z,50.23
2023-05-11T13:29:11.420Z,50.14
2023-05-11T13:30:13.566Z,49.83
2023-05-11T13:31:15.374Z,50.26
2023-05-11T13:32:17.109Z,50.42
2023-05-11T13:33:19.467Z,50.21
2023-05-11T13:34:21.200Z,48.81
2023-05-11T13:35:22.774Z,49.11
2023-05-11T13:36:24.320Z,49.07
2023-05-11T13:37:25.959Z,49.98
2023-05-11T13:38:27.488Z,49.75
2023-05-11T13:39:29.022Z,49.49
2023-05-11T13:40:30.657Z,49.62
2023-05-11T13:41:32.610Z,48.96
2023-05-11T13:42:34.293Z,50.15
2023-05-11T13:43:36.583Z,50.17